Time;durP1;ratioP1;P1;durP2;ratioP2;P2;SDS_P1;SDS_P2;PMS_P1;PMS_P2;Temp;Humidity;BMP_temperature;BMP_pressure;BME280_temperature;BME280_humidity;BME280_pressure;Samples;Min_cycle;Max_cycle;Signal;HPM_P1;HPM_P2
2022/07/16 00:02:12;;;;;;;64.90;5.87;;;;;;;;;;5091770;28;20854;-71
2022/07/16 00:04:39;;;;;;;62.60;6.07;;;;;;;;;;5089692;28;20480;-70
2022/07/16 00:07:06;;;;;;;62.67;6.00;;;;;;;;;;5092031;28;20451;-70
2022/07/16 00:09:33;;;;;;;62.67;5.30;;;;;;;;;;5091734;28;20542;-70
2022/07/16 00:12:02;;;;;;;60.87;5.20;;;;;;;;;;5091687;28;20448;-70
2022/07/16 00:14:29;;;;;;;62.30;5.33;;;;;;;;;;5091901;28;20466;-70
2022/07/16 00:16:56;;;;;;;61.30;5.50;;;;;;;;;;5091682;28;20454;-70
2022/07/16 00:19:23;;;;;;;61.47;5.77;;;;;;;;;;5091582;28;20443;-70
2022/07/16 00:21:51;;;;;;;61.80;5.40;;;;;;;;;;5091694;28;20529;-70
2022/07/16 00:24:18;;;;;;;61.37;5.50;;;;;;;;;;5090935;28;20477;-69
2022/07/16 00:26:47;;;;;;;63.27;5.93;;;;;;;;;;5091571;28;20447;-70
2022/07/16 00:29:17;;;;;;;60.63;5.37;;;;;;;;;;5091344;28;20959;-70
2022/07/16 00:31:44;;;;;;;61.63;5.70;;;;;;;;;;5091513;28;20943;-70
2022/07/16 00:34:12;;;;;;;59.87;4.70;;;;;;;;;;5091404;28;20498;-70
2022/07/16 00:36:40;;;;;;;60.97;5.20;;;;;;;;;;5089284;28;20475;-70
2022/07/16 00:39:08;;;;;;;61.93;5.23;;;;;;;;;;5091368;28;20452;-70
2022/07/16 00:41:35;;;;;;;64.30;5.60;;;;;;;;;;5093454;28;20447;-70
2022/07/16 00:44:03;;;;;;;61.40;5.10;;;;;;;;;;5095368;28;20483;-70
2022/07/16 00:46:32;;;;;;;61.97;5.40;;;;;;;;;;5095332;28;20454;-70
2022/07/16 00:48:59;;;;;;;61.37;4.90;;;;;;;;;;5095408;28;20453;-70
2022/07/16 00:51:27;;;;;;;61.87;5.13;;;;;;;;;;5095441;28;20686;-70
2022/07/16 00:53:55;;;;;;;62.10;5.73;;;;;;;;;;5095490;28;20469;-70
2022/07/16 00:56:22;;;;;;;61.70;5.90;;;;;;;;;;5095420;28;20969;-70
2022/07/16 00:58:50;;;;;;;61.10;5.20;;;;;;;;;;5095064;28;21060;-70
2022/07/16 01:01:17;;;;;;;60.50;5.20;;;;;;;;;;5095387;28;20462;-70
2022/07/16 01:03:46;;;;;;;61.60;5.67;;;;;;;;;;5092063;28;20482;-71
2022/07/16 01:06:14;;;;;;;62.43;5.50;;;;;;;;;;5094882;28;20450;-70
2022/07/16 01:08:42;;;;;;;60.67;4.90;;;;;;;;;;5093081;28;20458;-70
2022/07/16 01:11:11;;;;;;;61.17;4.90;;;;;;;;;;5095243;28;20915;-70
2022/07/16 01:13:40;;;;;;;60.83;5.00;;;;;;;;;;5094645;28;20475;-70
2022/07/16 01:16:08;;;;;;;66.67;5.43;;;;;;;;;;5095251;28;20454;-70
2022/07/16 01:18:35;;;;;;;62.37;5.07;;;;;;;;;;5094975;28;20816;-70
2022/07/16 01:21:04;;;;;;;63.43;6.63;;;;;;;;;;5095152;28;20448;-70
2022/07/16 01:23:32;;;;;;;62.23;5.40;;;;;;;;;;5094539;28;20486;-70
2022/07/16 01:26:00;;;;;;;61.97;5.77;;;;;;;;;;5094493;28;20460;-69
2022/07/16 01:28:27;;;;;;;62.57;5.37;;;;;;;;;;5094846;28;20854;-70
2022/07/16 01:30:54;;;;;;;61.57;5.20;;;;;;;;;;5094701;28;20438;-70
2022/07/16 01:33:23;;;;;;;60.97;4.80;;;;;;;;;;5094036;28;20462;-70
2022/07/16 01:35:51;;;;;;;62.10;5.17;;;;;;;;;;5093417;28;20547;-70
2022/07/16 01:38:18;;;;;;;62.30;4.73;;;;;;;;;;5093304;28;20446;-70
2022/07/16 01:40:46;;;;;;;66.10;5.60;;;;;;;;;;5091980;28;20449;-70
2022/07/16 01:43:14;;;;;;;61.13;5.03;;;;;;;;;;5093431;28;20485;-70
2022/07/16 01:45:41;;;;;;;60.07;4.37;;;;;;;;;;5093574;28;20549;-71
2022/07/16 01:48:09;;;;;;;62.07;4.40;;;;;;;;;;5093459;28;20878;-70
2022/07/16 01:50:37;;;;;;;60.97;5.07;;;;;;;;;;5093444;28;20448;-70
2022/07/16 01:53:04;;;;;;;61.67;5.60;;;;;;;;;;5093597;28;20450;-70
2022/07/16 01:55:31;;;;;;;61.33;4.80;;;;;;;;;;5093452;28;20559;-70
2022/07/16 01:58:00;;;;;;;62.70;5.53;;;;;;;;;;5093187;28;20446;-71
2022/07/16 02:00:27;;;;;;;61.20;5.40;;;;;;;;;;5093623;28;20791;-69
2022/07/16 02:02:54;;;;;;;63.33;5.60;;;;;;;;;;5093302;28;20488;-70
2022/07/16 02:05:21;;;;;;;61.27;4.87;;;;;;;;;;5093170;28;20462;-69
2022/07/16 02:07:48;;;;;;;62.20;5.17;;;;;;;;;;5092806;28;20446;-70
2022/07/16 02:10:15;;;;;;;62.73;5.60;;;;;;;;;;5093362;28;20839;-71
2022/07/16 02:12:43;;;;;;;61.67;5.10;;;;;;;;;;5093277;28;20689;-71
2022/07/16 02:15:12;;;;;;;61.87;5.37;;;;;;;;;;5093145;28;20470;-70
2022/07/16 02:17:39;;;;;;;61.60;5.50;;;;;;;;;;5093014;28;20758;-70
2022/07/16 02:20:08;;;;;;;60.37;4.60;;;;;;;;;;5093021;28;20454;-70
2022/07/16 02:22:35;;;;;;;61.70;5.67;;;;;;;;;;5092680;28;20456;-71
2022/07/16 02:25:03;;;;;;;61.37;4.90;;;;;;;;;;5093043;28;20473;-70
2022/07/16 02:27:30;;;;;;;60.93;4.90;;;;;;;;;;5092807;28;20456;-70
2022/07/16 02:29:58;;;;;;;62.57;5.50;;;;;;;;;;5092944;28;20445;-70
2022/07/16 02:32:27;;;;;;;62.00;5.70;;;;;;;;;;5092797;28;20454;-70
2022/07/16 02:34:54;;;;;;;61.05;5.07;;;;;;;;;;5054199;28;1119776;-70
2022/07/16 02:37:21;;;;;;;62.77;5.30;;;;;;;;;;5093428;28;20204;-70
2022/07/16 02:39:48;;;;;;;62.20;5.70;;;;;;;;;;5093825;28;20452;-71
2022/07/16 02:42:15;;;;;;;66.20;5.93;;;;;;;;;;5093520;28;21060;-70
2022/07/16 02:44:43;;;;;;;62.17;5.00;;;;;;;;;;5093494;28;20486;-70
2022/07/16 02:47:10;;;;;;;68.03;5.70;;;;;;;;;;5093222;28;21045;-68
2022/07/16 02:49:38;;;;;;;61.50;5.50;;;;;;;;;;5093441;28;20453;-69
2022/07/16 02:52:06;;;;;;;61.93;5.40;;;;;;;;;;5093616;28;20446;-70
2022/07/16 02:54:33;;;;;;;60.87;4.40;;;;;;;;;;5093286;28;20463;-70
2022/07/16 02:57:00;;;;;;;61.60;5.63;;;;;;;;;;5093390;28;20453;-69
2022/07/16 02:59:27;;;;;;;63.67;5.27;;;;;;;;;;5093171;28;20454;-70
2022/07/16 03:01:54;;;;;;;64.00;6.00;;;;;;;;;;5093147;28;20450;-69
2022/07/16 03:04:21;;;;;;;63.50;6.30;;;;;;;;;;5092384;28;20492;-69
2022/07/16 03:06:50;;;;;;;61.77;5.80;;;;;;;;;;5093326;28;20442;-69
2022/07/16 03:09:17;;;;;;;61.57;5.63;;;;;;;;;;5092727;28;20449;-70
2022/07/16 03:11:44;;;;;;;61.67;5.27;;;;;;;;;;5093042;28;20457;-70
2022/07/16 03:14:11;;;;;;;62.00;5.07;;;;;;;;;;5092890;28;20489;-70
2022/07/16 03:16:38;;;;;;;61.20;5.27;;;;;;;;;;5092970;28;20503;-70
2022/07/16 03:19:05;;;;;;;62.10;5.70;;;;;;;;;;5092759;28;20446;-70
2022/07/16 03:21:32;;;;;;;62.17;5.70;;;;;;;;;;5092860;28;20979;-70
2022/07/16 03:24:01;;;;;;;62.77;5.43;;;;;;;;;;5092800;28;20490;-70
2022/07/16 03:26:28;;;;;;;63.47;5.67;;;;;;;;;;5092887;28;20442;-70
2022/07/16 03:28:55;;;;;;;60.80;4.93;;;;;;;;;;5092292;28;20453;-70
2022/07/16 03:31:22;;;;;;;61.97;5.80;;;;;;;;;;5092836;28;20450;-70
2022/07/16 03:33:49;;;;;;;61.90;5.20;;;;;;;;;;5092593;28;20486;-69
2022/07/16 03:36:16;;;;;;;62.80;6.03;;;;;;;;;;5092803;28;20841;-70
2022/07/16 03:39:00;;;;;;;61.60;5.13;;;;;;;;;;5092657;28;20457;-70
2022/07/16 03:41:29;;;;;;;63.97;5.87;;;;;;;;;;5092432;28;20449;-70
2022/07/16 03:43:56;;;;;;;61.70;5.80;;;;;;;;;;5092521;28;20489;-70
2022/07/16 03:46:23;;;;;;;63.97;6.30;;;;;;;;;;5092601;28;20450;-70
2022/07/16 03:48:50;;;;;;;62.30;6.63;;;;;;;;;;5092238;28;20817;-70
2022/07/16 03:51:17;;;;;;;61.70;5.33;;;;;;;;;;5092472;28;20443;-70
2022/07/16 03:53:44;;;;;;;61.30;5.60;;;;;;;;;;5092192;28;20462;-70
2022/07/16 03:56:11;;;;;;;61.43;5.00;;;;;;;;;;5092155;28;20460;-70
2022/07/16 03:58:40;;;;;;;61.77;5.27;;;;;;;;;;5092230;28;20824;-70
2022/07/16 04:01:07;;;;;;;61.40;5.70;;;;;;;;;;5092233;28;21008;-70
2022/07/16 04:03:35;;;;;;;62.07;5.33;;;;;;;;;;5091904;28;20470;-70
2022/07/16 04:06:02;;;;;;;60.67;4.83;;;;;;;;;;5092178;28;20778;-70
2022/07/16 04:08:29;;;;;;;61.60;5.20;;;;;;;;;;5091813;28;20450;-71
2022/07/16 04:10:56;;;;;;;61.50;5.30;;;;;;;;;;5092095;28;20453;-70
2022/07/16 04:13:24;;;;;;;61.47;5.00;;;;;;;;;;5092074;28;20466;-70
2022/07/16 04:15:52;;;;;;;63.70;5.17;;;;;;;;;;5092038;28;20446;-70
2022/07/16 04:18:20;;;;;;;62.30;5.50;;;;;;;;;;5092100;28;20449;-71
2022/07/16 04:20:47;;;;;;;61.07;5.10;;;;;;;;;;5092075;28;20447;-71
2022/07/16 04:23:14;;;;;;;61.40;5.37;;;;;;;;;;5091613;28;20448;-70
2022/07/16 04:25:42;;;;;;;62.70;6.00;;;;;;;;;;5091749;28;20466;-71
2022/07/16 04:28:09;;;;;;;61.83;6.03;;;;;;;;;;5091747;28;20442;-70
2022/07/16 04:30:36;;;;;;;60.97;5.97;;;;;;;;;;5091993;28;20542;-71
2022/07/16 04:33:04;;;;;;;61.90;5.63;;;;;;;;;;5091929;28;20461;-70
2022/07/16 04:35:32;;;;;;;61.67;5.30;;;;;;;;;;5091682;28;20545;-70
2022/07/16 04:37:59;;;;;;;62.97;6.10;;;;;;;;;;5091372;28;20828;-69
2022/07/16 04:40:26;;;;;;;64.63;6.10;;;;;;;;;;5091751;28;20452;-70
2022/07/16 04:42:53;;;;;;;61.40;5.00;;;;;;;;;;5091622;28;20451;-70
2022/07/16 04:45:20;;;;;;;60.97;4.77;;;;;;;;;;5091661;28;20569;-71
2022/07/16 04:47:47;;;;;;;62.77;6.10;;;;;;;;;;5091380;28;20449;-70
2022/07/16 04:50:16;;;;;;;61.00;4.70;;;;;;;;;;5091580;28;20874;-70
2022/07/16 04:52:43;;;;;;;61.03;5.03;;;;;;;;;;5091496;28;20448;-69
2022/07/16 04:55:10;;;;;;;60.97;5.33;;;;;;;;;;5091735;28;20454;-70
2022/07/16 04:57:37;;;;;;;61.67;5.70;;;;;;;;;;5091442;28;20829;-70
2022/07/16 05:00:05;;;;;;;62.57;5.70;;;;;;;;;;5091542;28;20984;-71
2022/07/16 05:05:20;;;;;;;60.90;5.17;;;;;;;;;;5091477;28;20489;-69
2022/07/16 05:07:47;;;;;;;70.50;5.73;;;;;;;;;;5091258;28;20449;-71
2022/07/16 05:10:14;;;;;;;62.10;4.90;;;;;;;;;;5091648;28;20555;-69
2022/07/16 05:12:41;;;;;;;60.67;5.13;;;;;;;;;;5091439;28;20782;-70
2022/07/16 05:15:09;;;;;;;61.30;5.63;;;;;;;;;;5091389;28;20490;-70
2022/07/16 05:17:36;;;;;;;62.20;6.33;;;;;;;;;;5091274;28;20442;-70
2022/07/16 05:20:04;;;;;;;66.00;4.90;;;;;;;;;;5091545;28;20533;-70
2022/07/16 05:22:32;;;;;;;61.87;5.40;;;;;;;;;;5091422;28;20450;-70
2022/07/16 05:25:00;;;;;;;61.37;5.00;;;;;;;;;;5091236;28;20500;-70
2022/07/16 05:27:27;;;;;;;62.43;5.43;;;;;;;;;;5092502;28;20997;-71
2022/07/16 05:29:54;;;;;;;61.90;5.53;;;;;;;;;;5094874;28;20549;-71
2022/07/16 05:32:21;;;;;;;61.20;4.77;;;;;;;;;;5095172;28;20452;-71
2022/07/16 05:34:48;;;;;;;62.23;5.47;;;;;;;;;;5094817;28;20986;-70
2022/07/16 05:37:16;;;;;;;60.77;5.43;;;;;;;;;;5094683;28;20442;-70
2022/07/16 05:39:44;;;;;;;60.93;5.00;;;;;;;;;;5094904;28;20450;-70
2022/07/16 05:42:11;;;;;;;62.17;6.07;;;;;;;;;;5094791;28;20452;-70
2022/07/16 05:44:39;;;;;;;60.87;5.17;;;;;;;;;;5094530;28;20488;-70
2022/07/16 05:47:06;;;;;;;60.47;4.57;;;;;;;;;;5094906;28;20446;-71
2022/07/16 05:49:34;;;;;;;61.53;4.90;;;;;;;;;;5094539;28;20887;-71
2022/07/16 05:52:01;;;;;;;69.60;6.63;;;;;;;;;;5094768;28;20451;-70
2022/07/16 05:54:28;;;;;;;61.87;5.60;;;;;;;;;;5094541;28;20458;-70
2022/07/16 05:56:56;;;;;;;62.40;5.73;;;;;;;;;;5094370;28;20450;-70
2022/07/16 05:59:23;;;;;;;65.80;5.10;;;;;;;;;;5094553;28;20446;-70
2022/07/16 06:01:50;;;;;;;62.73;5.20;;;;;;;;;;5094690;28;20481;-71
2022/07/16 06:04:18;;;;;;;60.90;5.00;;;;;;;;;;5094287;28;20482;-70
2022/07/16 06:06:45;;;;;;;61.53;5.07;;;;;;;;;;5094449;28;20447;-70
2022/07/16 06:09:12;;;;;;;60.40;4.73;;;;;;;;;;5094066;28;20540;-70
2022/07/16 06:11:40;;;;;;;60.30;4.97;;;;;;;;;;5094160;28;20452;-70
2022/07/16 06:14:08;;;;;;;60.63;4.77;;;;;;;;;;5094181;28;20472;-71
2022/07/16 06:16:35;;;;;;;61.50;4.57;;;;;;;;;;5094348;28;20458;-69
2022/07/16 06:19:02;;;;;;;61.37;4.90;;;;;;;;;;5093989;28;20449;-70
2022/07/16 06:21:29;;;;;;;62.40;5.60;;;;;;;;;;5094132;28;20809;-70
2022/07/16 06:23:57;;;;;;;60.20;4.97;;;;;;;;;;5093628;28;20560;-71
2022/07/16 06:26:24;;;;;;;60.67;4.07;;;;;;;;;;5094090;28;20936;-70
2022/07/16 06:28:51;;;;;;;61.30;4.33;;;;;;;;;;5093874;28;20451;-70
2022/07/16 06:31:19;;;;;;;59.87;4.40;;;;;;;;;;5094066;28;20813;-70
2022/07/16 06:33:46;;;;;;;62.70;4.60;;;;;;;;;;5093605;28;21013;-70
2022/07/16 06:36:14;;;;;;;60.40;4.60;;;;;;;;;;5093822;28;20456;-71
2022/07/16 06:38:41;;;;;;;60.00;4.20;;;;;;;;;;5092108;28;20457;-70
2022/07/16 06:41:08;;;;;;;59.73;4.20;;;;;;;;;;5093584;28;20454;-69
2022/07/16 06:43:35;;;;;;;61.47;4.43;;;;;;;;;;5093674;28;20483;-70
2022/07/16 06:46:02;;;;;;;63.70;5.43;;;;;;;;;;5093646;28;20579;-70
2022/07/16 06:48:31;;;;;;;61.27;4.60;;;;;;;;;;5093404;28;20460;-70
2022/07/16 06:50:58;;;;;;;59.97;4.20;;;;;;;;;;5093484;28;20447;-70
2022/07/16 06:53:25;;;;;;;59.87;4.30;;;;;;;;;;5093148;28;20449;-70
2022/07/16 06:55:52;;;;;;;60.07;3.73;;;;;;;;;;5093623;28;20490;-70
2022/07/16 06:58:19;;;;;;;60.77;4.30;;;;;;;;;;5093218;28;20454;-70
2022/07/16 07:00:46;;;;;;;60.40;4.00;;;;;;;;;;5093432;28;20458;-70
2022/07/16 07:03:13;;;;;;;60.70;4.67;;;;;;;;;;5093129;28;20535;-70
2022/07/16 07:05:42;;;;;;;60.20;3.70;;;;;;;;;;5092917;28;20484;-71
2022/07/16 07:08:09;;;;;;;60.87;4.63;;;;;;;;;;5093145;28;20868;-70
2022/07/16 07:10:36;;;;;;;62.37;4.77;;;;;;;;;;5093252;28;20491;-70
2022/07/16 07:13:03;;;;;;;60.00;4.10;;;;;;;;;;5092991;28;20468;-70
2022/07/16 07:15:30;;;;;;;62.80;4.87;;;;;;;;;;5093018;28;20837;-70
2022/07/16 07:17:58;;;;;;;60.63;4.30;;;;;;;;;;5092769;28;20452;-70
2022/07/16 07:20:25;;;;;;;60.10;4.20;;;;;;;;;;5092729;28;20545;-70
2022/07/16 07:22:53;;;;;;;59.47;4.17;;;;;;;;;;5092917;28;20448;-70
2022/07/16 07:25:21;;;;;;;61.10;4.50;;;;;;;;;;5092784;28;20579;-70
2022/07/16 07:27:48;;;;;;;60.00;3.80;;;;;;;;;;5092585;28;20525;-70
2022/07/16 07:30:15;;;;;;;62.60;5.03;;;;;;;;;;5092822;28;20447;-70
2022/07/16 07:32:42;;;;;;;60.80;4.30;;;;;;;;;;5092494;28;20453;-70
2022/07/16 07:35:09;;;;;;;63.97;4.10;;;;;;;;;;5092537;28;20824;-71
2022/07/16 07:37:36;;;;;;;61.50;4.70;;;;;;;;;;5092540;28;20791;-70
2022/07/16 07:40:06;;;;;;;59.97;3.93;;;;;;;;;;5092523;28;20448;-69
2022/07/16 07:42:33;;;;;;;59.37;3.53;;;;;;;;;;5092505;28;20442;-70
2022/07/16 07:45:00;;;;;;;60.90;4.03;;;;;;;;;;5092394;28;20512;-70
2022/07/16 07:47:28;;;;;;;61.57;3.93;;;;;;;;;;5092099;28;20447;-71
2022/07/16 07:49:55;;;;;;;59.07;3.40;;;;;;;;;;5092259;28;20447;-70
2022/07/16 07:52:22;;;;;;;59.77;3.67;;;;;;;;;;5092412;28;20449;-70
2022/07/16 07:54:49;;;;;;;60.23;3.80;;;;;;;;;;5092124;28;20554;-70
2022/07/16 07:57:18;;;;;;;60.27;3.70;;;;;;;;;;5092075;28;20448;-70
2022/07/16 07:59:45;;;;;;;60.07;3.07;;;;;;;;;;5092248;28;20454;-70
2022/07/16 08:02:12;;;;;;;60.37;3.40;;;;;;;;;;5092646;28;20443;-70
2022/07/16 08:04:39;;;;;;;59.43;3.60;;;;;;;;;;5092145;28;20832;-70
2022/07/16 08:07:06;;;;;;;60.97;3.37;;;;;;;;;;5092269;28;20446;-69
2022/07/16 08:09:33;;;;;;;61.90;4.10;;;;;;;;;;5091915;28;20442;-71
2022/07/16 08:12:00;;;;;;;59.67;3.83;;;;;;;;;;5092131;28;20442;-69
2022/07/16 08:14:29;;;;;;;59.90;3.80;;;;;;;;;;5092383;28;20467;-70
2022/07/16 08:16:56;;;;;;;59.87;3.20;;;;;;;;;;5092199;28;20453;-71
2022/07/16 08:19:23;;;;;;;59.90;3.50;;;;;;;;;;5091926;28;20450;-70
2022/07/16 08:21:50;;;;;;;58.73;3.30;;;;;;;;;;5091941;28;20842;-71
2022/07/16 08:27:02;;;;;;;59.80;3.43;;;;;;;;;;5091924;28;20418;-71
2022/07/16 08:29:31;;;;;;;61.70;3.47;;;;;;;;;;5091955;28;20442;-70
2022/07/16 08:31:58;;;;;;;59.10;3.53;;;;;;;;;;5092090;28;20517;-70
2022/07/16 08:34:25;;;;;;;60.60;4.37;;;;;;;;;;5091575;28;20642;-69
2022/07/16 08:36:52;;;;;;;58.47;3.10;;;;;;;;;;5091826;28;20453;-70
2022/07/16 08:39:20;;;;;;;59.03;3.27;;;;;;;;;;5091630;28;20539;-71
2022/07/16 08:41:48;;;;;;;65.37;3.70;;;;;;;;;;5091989;28;20519;-69
2022/07/16 08:44:15;;;;;;;59.20;3.30;;;;;;;;;;5091775;28;20469;-69
2022/07/16 08:46:44;;;;;;;59.77;3.53;;;;;;;;;;5091674;28;20493;-69
2022/07/16 08:49:11;;;;;;;59.50;3.20;;;;;;;;;;5091509;28;20446;-71
2022/07/16 08:51:40;;;;;;;58.40;2.60;;;;;;;;;;5092134;28;20449;-69
2022/07/16 08:54:11;;;;;;;59.37;2.83;;;;;;;;;;5091831;28;21000;-68
2022/07/16 08:56:38;;;;;;;60.93;3.10;;;;;;;;;;5092555;28;20941;-68
2022/07/16 08:59:06;;;;;;;61.40;3.20;;;;;;;;;;5091851;28;20452;-69
2022/07/16 09:01:33;;;;;;;59.43;3.00;;;;;;;;;;5092603;28;20455;-69
2022/07/16 09:04:02;;;;;;;60.17;3.40;;;;;;;;;;5096373;28;20494;-68
2022/07/16 09:06:30;;;;;;;59.47;3.13;;;;;;;;;;5096260;28;20474;-68
2022/07/16 09:08:57;;;;;;;59.97;2.90;;;;;;;;;;5096114;28;20442;-69
2022/07/16 09:11:25;;;;;;;62.20;3.03;;;;;;;;;;5096111;28;20545;-69
2022/07/16 09:14:02;;;;;;;60.70;3.10;;;;;;;;;;5095748;28;20462;-68
2022/07/16 09:16:30;;;;;;;59.07;2.87;;;;;;;;;;5095682;28;20439;-68
2022/07/16 09:19:04;;;;;;;58.23;2.80;;;;;;;;;;5095352;28;20947;-69
2022/07/16 09:21:31;;;;;;;58.50;2.80;;;;;;;;;;5096374;28;20457;-69
2022/07/16 09:23:58;;;;;;;58.47;2.90;;;;;;;;;;5095730;28;20548;-69
2022/07/16 09:26:27;;;;;;;58.33;2.80;;;;;;;;;;5096127;28;20486;-69
2022/07/16 09:28:54;;;;;;;58.63;2.97;;;;;;;;;;5096093;28;20442;-68
2022/07/16 09:31:38;;;;;;;58.60;3.03;;;;;;;;;;5095779;28;20443;-69
2022/07/16 09:34:07;;;;;;;58.77;2.70;;;;;;;;;;5094985;28;20997;-68
2022/07/16 09:36:34;;;;;;;58.80;2.60;;;;;;;;;;5095781;28;20850;-69
2022/07/16 09:39:02;;;;;;;58.60;3.00;;;;;;;;;;5096009;28;20548;-69
2022/07/16 09:41:41;;;;;;;57.77;3.10;;;;;;;;;;5095892;28;20998;-68
2022/07/16 09:44:13;;;;;;;58.57;2.90;;;;;;;;;;5095121;28;20467;-69
2022/07/16 09:46:40;;;;;;;60.40;4.57;;;;;;;;;;5095309;28;20485;-70
2022/07/16 09:49:19;;;;;;;60.50;3.57;;;;;;;;;;5095440;28;20456;-68
2022/07/16 09:51:46;;;;;;;58.80;3.30;;;;;;;;;;5095322;28;20444;-69
2022/07/16 09:54:26;;;;;;;59.97;2.90;;;;;;;;;;5095800;28;20491;-68
2022/07/16 09:57:05;;;;;;;58.70;2.70;;;;;;;;;;5095285;28;20544;-70
2022/07/16 09:59:32;;;;;;;59.90;2.70;;;;;;;;;;5095232;28;20455;-68
2022/07/16 10:01:59;;;;;;;59.10;2.63;;;;;;;;;;5095300;28;20442;-69
2022/07/16 10:04:28;;;;;;;58.07;2.50;;;;;;;;;;5095126;28;20465;-70
2022/07/16 10:06:55;;;;;;;58.40;2.80;;;;;;;;;;5094998;28;20480;-68
2022/07/16 10:09:23;;;;;;;67.20;2.97;;;;;;;;;;5094878;28;20447;-68
2022/07/16 10:11:51;;;;;;;58.47;2.70;;;;;;;;;;5095312;28;20460;-69
2022/07/16 10:14:18;;;;;;;59.47;2.67;;;;;;;;;;5094468;28;20470;-69
2022/07/16 10:16:46;;;;;;;59.53;3.20;;;;;;;;;;5095107;28;20442;-69
2022/07/16 10:19:14;;;;;;;58.30;3.13;;;;;;;;;;5094940;28;20779;-69
2022/07/16 10:21:43;;;;;;;58.97;3.10;;;;;;;;;;5094861;28;20450;-69
2022/07/16 10:24:13;;;;;;;61.23;3.13;;;;;;;;;;5094825;28;20910;-69
2022/07/16 10:26:41;;;;;;;59.03;2.40;;;;;;;;;;5094881;28;20481;-67
2022/07/16 10:29:08;;;;;;;58.20;2.30;;;;;;;;;;5094087;28;20534;-66
2022/07/16 10:31:38;;;;;;;58.00;2.40;;;;;;;;;;5094209;28;20450;-67
2022/07/16 10:34:39;;;;;;;57.83;2.17;;;;;;;;;;5093652;28;20561;-67
2022/07/16 10:37:21;;;;;;;58.00;2.30;;;;;;;;;;5094541;28;20453;-66
2022/07/16 10:40:03;;;;;;;58.20;2.70;;;;;;;;;;5093917;28;20541;-68
2022/07/16 10:42:31;;;;;;;58.10;2.40;;;;;;;;;;5094701;28;20455;-68
2022/07/16 10:44:58;;;;;;;58.30;2.43;;;;;;;;;;5094573;28;20558;-68
2022/07/16 10:47:40;;;;;;;57.40;2.00;;;;;;;;;;5094011;28;20917;-68
2022/07/16 10:50:13;;;;;;;58.07;2.30;;;;;;;;;;5094321;28;20594;-68
2022/07/16 10:52:46;;;;;;;57.83;2.03;;;;;;;;;;5094592;28;20438;-67
2022/07/16 10:55:18;;;;;;;58.80;2.30;;;;;;;;;;5094045;28;20498;-67
2022/07/16 10:57:46;;;;;;;56.80;2.20;;;;;;;;;;5094092;28;20478;-68
2022/07/16 11:00:13;;;;;;;58.17;2.10;;;;;;;;;;5094169;28;20533;-68
2022/07/16 11:02:41;;;;;;;56.80;2.00;;;;;;;;;;5094102;28;20877;-69
2022/07/16 11:05:09;;;;;;;57.17;1.97;;;;;;;;;;5094859;28;20886;-69
2022/07/16 11:07:37;;;;;;;57.67;2.23;;;;;;;;;;5093770;28;20537;-69
2022/07/16 11:10:05;;;;;;;56.67;2.00;;;;;;;;;;5093759;28;20469;-68
2022/07/16 11:12:37;;;;;;;57.63;2.00;;;;;;;;;;5093703;28;20537;-69
2022/07/16 11:15:04;;;;;;;56.67;1.87;;;;;;;;;;5093984;28;20466;-68
2022/07/16 11:17:33;;;;;;;56.60;1.90;;;;;;;;;;5094499;28;20573;-68
2022/07/16 11:20:03;;;;;;;56.67;2.03;;;;;;;;;;5094070;28;20931;-69
2022/07/16 11:22:31;;;;;;;59.00;2.20;;;;;;;;;;5093386;28;20447;-69
2022/07/16 11:24:59;;;;;;;57.07;2.33;;;;;;;;;;5092850;28;20558;-68
2022/07/16 11:27:27;;;;;;;57.17;2.43;;;;;;;;;;5093198;28;20533;-69
2022/07/16 11:29:57;;;;;;;56.83;1.97;;;;;;;;;;5093292;28;20973;-68
2022/07/16 11:32:24;;;;;;;57.43;2.20;;;;;;;;;;5092989;28;20825;-69
2022/07/16 11:34:51;;;;;;;56.70;2.00;;;;;;;;;;5093471;28;20481;-69
2022/07/16 11:37:19;;;;;;;57.17;2.40;;;;;;;;;;5093008;28;20573;-69
2022/07/16 11:39:46;;;;;;;57.10;2.07;;;;;;;;;;5093580;28;20826;-68
2022/07/16 11:42:13;;;;;;;56.97;2.13;;;;;;;;;;5093184;28;20442;-69
2022/07/16 11:44:41;;;;;;;56.47;1.70;;;;;;;;;;5093360;28;20471;-68
2022/07/16 11:47:10;;;;;;;57.77;2.20;;;;;;;;;;5093515;28;20470;-67
2022/07/16 11:49:39;;;;;;;56.80;1.90;;;;;;;;;;5093666;28;20452;-69
2022/07/16 11:52:07;;;;;;;56.37;1.80;;;;;;;;;;5093531;28;20469;-69
2022/07/16 11:54:36;;;;;;;57.40;2.00;;;;;;;;;;5093522;28;20462;-69
2022/07/16 11:57:04;;;;;;;57.07;2.00;;;;;;;;;;5093173;28;20482;-69
2022/07/16 11:59:32;;;;;;;59.00;1.90;;;;;;;;;;5092636;28;20446;-69
2022/07/16 12:02:01;;;;;;;57.40;1.90;;;;;;;;;;5092973;28;20525;-69
2022/07/16 12:04:34;;;;;;;56.57;2.00;;;;;;;;;;5093148;28;20502;-70
2022/07/16 12:07:01;;;;;;;56.87;1.93;;;;;;;;;;5092925;28;20446;-69
2022/07/16 12:09:32;;;;;;;57.00;2.10;;;;;;;;;;5092549;28;20450;-68
2022/07/16 12:12:04;;;;;;;58.23;2.07;;;;;;;;;;5092613;28;20454;-68
2022/07/16 12:14:44;;;;;;;57.10;2.00;;;;;;;;;;5092611;28;20532;-68
2022/07/16 12:17:19;;;;;;;57.47;2.40;;;;;;;;;;5093127;28;21025;-68
2022/07/16 12:20:02;;;;;;;57.00;2.00;;;;;;;;;;5092897;28;20453;-69
2022/07/16 12:22:43;;;;;;;57.10;2.30;;;;;;;;;;5093845;28;20464;-68
2022/07/16 12:25:16;;;;;;;57.70;2.00;;;;;;;;;;5093164;28;20640;-68
2022/07/16 12:27:47;;;;;;;56.70;1.90;;;;;;;;;;5092650;28;20447;-68
2022/07/16 12:30:14;;;;;;;56.97;2.20;;;;;;;;;;5093450;28;20958;-69
2022/07/16 12:32:48;;;;;;;56.87;2.00;;;;;;;;;;5092398;28;20976;-68
2022/07/16 12:35:34;;;;;;;56.63;1.90;;;;;;;;;;5092512;28;20466;-69
2022/07/16 12:38:02;;;;;;;58.57;1.80;;;;;;;;;;5096579;28;20488;-68
2022/07/16 12:40:30;;;;;;;58.50;2.23;;;;;;;;;;5096846;28;20454;-67
2022/07/16 12:42:57;;;;;;;59.90;2.40;;;;;;;;;;5096813;28;20530;-69
2022/07/16 12:45:25;;;;;;;57.10;1.80;;;;;;;;;;5096707;28;20515;-69
2022/07/16 12:47:52;;;;;;;56.83;2.13;;;;;;;;;;5097092;28;20521;-68
2022/07/16 12:50:20;;;;;;;56.90;1.97;;;;;;;;;;5096863;28;20442;-69
2022/07/16 12:52:47;;;;;;;56.90;1.97;;;;;;;;;;5096375;28;20533;-68
2022/07/16 13:00:45;;;;;;;57.20;2.00;;;;;;;;;;5096363;28;20487;-68
2022/07/16 13:03:12;;;;;;;56.53;1.90;;;;;;;;;;5095981;28;20442;-69
2022/07/16 13:05:39;;;;;;;56.33;1.80;;;;;;;;;;5097800;28;20466;-69
2022/07/16 13:08:06;;;;;;;56.73;2.00;;;;;;;;;;5096193;28;20541;-69
2022/07/16 13:10:35;;;;;;;56.70;1.90;;;;;;;;;;5097327;28;20449;-69
2022/07/16 13:13:02;;;;;;;56.27;1.80;;;;;;;;;;5096566;28;20447;-70
2022/07/16 13:15:29;;;;;;;56.67;1.93;;;;;;;;;;5096790;28;20651;-69
2022/07/16 13:17:56;;;;;;;56.70;2.00;;;;;;;;;;5096142;28;20492;-67
2022/07/16 13:20:24;;;;;;;56.70;1.93;;;;;;;;;;5096512;28;20458;-69
2022/07/16 13:22:51;;;;;;;56.77;1.90;;;;;;;;;;5096255;28;20450;-69
2022/07/16 13:25:18;;;;;;;56.67;1.90;;;;;;;;;;5096220;28;20548;-68
2022/07/16 13:27:47;;;;;;;56.70;2.10;;;;;;;;;;5095931;28;20484;-68
2022/07/16 13:30:14;;;;;;;57.67;2.17;;;;;;;;;;5095730;28;20449;-69
2022/07/16 13:32:41;;;;;;;56.60;1.80;;;;;;;;;;5095923;28;20457;-68
2022/07/16 13:35:09;;;;;;;62.00;2.80;;;;;;;;;;5095628;28;20465;-69
2022/07/16 13:37:36;;;;;;;56.87;2.00;;;;;;;;;;5095588;28;21097;-69
2022/07/16 13:40:03;;;;;;;57.47;2.20;;;;;;;;;;5095889;28;20582;-69
2022/07/16 13:42:32;;;;;;;56.23;1.87;;;;;;;;;;5096174;28;20446;-69
2022/07/16 13:45:00;;;;;;;57.10;2.40;;;;;;;;;;5096581;28;20873;-69
2022/07/16 13:47:27;;;;;;;56.70;2.00;;;;;;;;;;5095795;28;20461;-68
2022/07/16 13:49:55;;;;;;;57.10;2.17;;;;;;;;;;5095191;28;20456;-69
2022/07/16 13:52:22;;;;;;;56.97;2.20;;;;;;;;;;5095359;28;20447;-69
2022/07/16 13:54:49;;;;;;;57.33;2.40;;;;;;;;;;5095303;28;20471;-69
2022/07/16 14:00:02;;;;;;;56.70;1.80;;;;;;;;;;5096549;28;20415;-70
2022/07/16 14:02:29;;;;;;;57.20;2.00;;;;;;;;;;5095595;28;20815;-69
2022/07/16 14:04:56;;;;;;;57.47;2.40;;;;;;;;;;5094992;28;20473;-69
2022/07/16 14:07:24;;;;;;;57.13;2.13;;;;;;;;;;5095083;28;20453;-69
2022/07/16 14:09:51;;;;;;;57.30;2.30;;;;;;;;;;5095022;28;20815;-68
2022/07/16 14:12:18;;;;;;;57.40;2.07;;;;;;;;;;5095045;28;20449;-68
2022/07/16 14:14:45;;;;;;;57.20;2.10;;;;;;;;;;5095905;28;20471;-69
2022/07/16 14:17:13;;;;;;;58.07;2.03;;;;;;;;;;5096150;28;20482;-67
2022/07/16 14:19:41;;;;;;;58.83;2.10;;;;;;;;;;5095134;28;20449;-68
2022/07/16 14:22:08;;;;;;;57.00;2.30;;;;;;;;;;5095148;28;20456;-70
2022/07/16 14:24:35;;;;;;;59.10;2.23;;;;;;;;;;5095352;28;20458;-68
2022/07/16 14:27:02;;;;;;;56.87;2.20;;;;;;;;;;5095096;28;20446;-69
2022/07/16 14:29:29;;;;;;;57.37;2.17;;;;;;;;;;5095056;28;20471;-69
2022/07/16 14:31:56;;;;;;;57.20;2.40;;;;;;;;;;5095211;28;20453;-68
2022/07/16 14:34:25;;;;;;;59.93;2.47;;;;;;;;;;5094757;28;20496;-69
2022/07/16 14:36:52;;;;;;;57.00;2.30;;;;;;;;;;5094807;28;20828;-68
2022/07/16 14:39:19;;;;;;;57.20;2.10;;;;;;;;;;5094132;28;20837;-68
2022/07/16 14:41:46;;;;;;;56.90;1.97;;;;;;;;;;5094373;28;20470;-69
2022/07/16 14:44:14;;;;;;;56.60;2.37;;;;;;;;;;5094181;28;20466;-69
2022/07/16 14:46:41;;;;;;;58.90;2.13;;;;;;;;;;5093998;28;20508;-68
2022/07/16 14:49:08;;;;;;;57.60;2.40;;;;;;;;;;5094064;28;20448;-68
2022/07/16 14:51:36;;;;;;;56.77;2.17;;;;;;;;;;5094015;28;20446;-68